createdAt,value
2023-05-17T00:02:21.975Z,97072.84
2023-05-17T00:04:48.836Z,97070.88
2023-05-17T00:07:16.132Z,97074.02
2023-05-17T00:09:42.964Z,97075.10
2023-05-17T00:12:09.806Z,97074.77
2023-05-17T00:14:37.142Z,97069.49
2023-05-17T00:17:04.019Z,97065.85
2023-05-17T00:19:30.869Z,97063.77
2023-05-17T00:21:57.907Z,97060.16
2023-05-17T00:24:25.030Z,97057.61
2023-05-17T00:26:51.969Z,97055.33
2023-05-17T00:29:18.768Z,97055.59
2023-05-17T00:31:45.993Z,97053.61
2023-05-17T00:34:12.923Z,97052.11
2023-05-17T00:36:39.698Z,97051.00
2023-05-17T00:39:06.850Z,97049.44
2023-05-17T00:41:33.655Z,97043.34
2023-05-17T00:44:00.781Z,97047.24
2023-05-17T00:46:27.696Z,97038.62
2023-05-17T00:48:54.814Z,97046.07
2023-05-17T00:51:21.631Z,97046.13
2023-05-17T00:53:49.035Z,97051.47
2023-05-17T00:56:15.996Z,97064.55
2023-05-17T00:58:42.722Z,97059.36
2023-05-17T01:01:09.681Z,97049.15
2023-05-17T01:03:36.735Z,97045.44
2023-05-17T01:06:04.696Z,97043.70
2023-05-17T01:08:31.719Z,97046.79
2023-05-17T01:11:20.011Z,97051.66
2023-05-17T01:14:02.796Z,97050.01
2023-05-17T01:16:36.220Z,97043.95
2023-05-17T01:19:12.723Z,97040.83
2023-05-17T01:22:17.455Z,97040.56
2023-05-17T01:25:05.322Z,97028.02
2023-05-17T01:27:32.101Z,97027.61
2023-05-17T01:29:58.853Z,97022.95
2023-05-17T01:32:26.245Z,97022.47
2023-05-17T01:34:53.438Z,97027.34
2023-05-17T01:37:20.291Z,97020.87
2023-05-17T01:39:48.042Z,97016.16
2023-05-17T01:42:24.620Z,97014.95
2023-05-17T01:45:03.797Z,97017.13
2023-05-17T01:47:43.728Z,97015.64
2023-05-17T01:50:10.742Z,97011.36
2023-05-17T01:52:53.704Z,97008.33
2023-05-17T01:55:49.661Z,97010.65
2023-05-17T01:58:16.604Z,97007.03
2023-05-17T02:00:44.457Z,97005.06
2023-05-17T02:03:18.471Z,97006.88
2023-05-17T02:05:45.340Z,97005.55
2023-05-17T02:08:12.421Z,97005.02
2023-05-17T02:10:39.548Z,97002.71
2023-05-17T02:13:06.312Z,97005.28
2023-05-17T02:15:33.167Z,97007.52
2023-05-17T02:18:00.029Z,97008.21
2023-05-17T02:20:27.003Z,97010.66
2023-05-17T02:22:53.785Z,97016.52
2023-05-17T02:25:20.671Z,97020.09
2023-05-17T02:27:47.523Z,97023.16
2023-05-17T02:30:18.133Z,97021.65
2023-05-17T02:32:45.636Z,97021.29
2023-05-17T02:35:14.203Z,97026.16
2023-05-17T02:37:41.520Z,97023.14
2023-05-17T02:40:09.972Z,97017.86
2023-05-17T02:42:37.031Z,97017.94
2023-05-17T02:45:04.395Z,97020.95
2023-05-17T02:47:31.517Z,97019.34
2023-05-17T02:50:01.533Z,97024.10
2023-05-17T02:52:28.820Z,97028.05
2023-05-17T02:54:56.476Z,97022.48
2023-05-17T02:57:23.283Z,97028.29
2023-05-17T02:59:50.438Z,97027.05
2023-05-17T03:02:17.373Z,97027.80
2023-05-17T03:04:44.392Z,97036.64
2023-05-17T03:07:11.745Z,97047.23
2023-05-17T03:09:40.001Z,97049.98
2023-05-17T03:12:08.116Z,97051.50
2023-05-17T03:14:35.132Z,97052.02
2023-05-17T03:17:02.244Z,97050.15
2023-05-17T03:19:29.981Z,97047.41
2023-05-17T03:21:57.027Z,97051.42
2023-05-17T03:24:23.852Z,97044.85
2023-05-17T03:26:51.028Z,97035.39
2023-05-17T03:29:17.983Z,97038.38
2023-05-17T03:31:47.653Z,97036.25
2023-05-17T03:34:15.680Z,97039.69
2023-05-17T03:36:42.990Z,97037.09
2023-05-17T03:39:10.091Z,97037.20
2023-05-17T03:41:39.309Z,97035.16
2023-05-17T03:44:06.213Z,97036.70
2023-05-17T03:46:34.026Z,97031.30
2023-05-17T03:49:00.914Z,97028.02
2023-05-17T03:51:29.166Z,97031.64
2023-05-17T03:53:59.803Z,97036.64
2023-05-17T03:56:28.369Z,97039.39
2023-05-17T03:58:55.360Z,97036.77
2023-05-17T04:01:23.215Z,97041.55
2023-05-17T04:03:50.162Z,97043.13
2023-05-17T04:06:17.304Z,97043.55
2023-05-17T04:08:44.242Z,97046.05
2023-05-17T04:11:13.132Z,97047.45
2023-05-17T04:13:40.840Z,97044.17
2023-05-17T04:16:08.596Z,97054.69
2023-05-17T04:18:36.985Z,97054.64
2023-05-17T04:21:04.633Z,97058.60
2023-05-17T04:23:32.650Z,97065.27
2023-05-17T04:25:59.923Z,97062.88
2023-05-17T04:28:27.694Z,97062.27
2023-05-17T04:30:55.903Z,97059.64
2023-05-17T04:33:24.372Z,97062.16
2023-05-17T04:35:51.668Z,97065.31
2023-05-17T04:38:18.822Z,97059.39
2023-05-17T04:40:45.788Z,97062.83
2023-05-17T04:43:12.740Z,97062.93
2023-05-17T04:45:41.243Z,97072.42
2023-05-17T04:48:08.590Z,97074.94
2023-05-17T04:50:36.059Z,97072.34
2023-05-17T04:53:04.241Z,97072.52
2023-05-17T04:55:32.431Z,97075.69
2023-05-17T04:58:00.343Z,97075.59
2023-05-17T05:00:27.144Z,97071.94
2023-05-17T05:02:59.483Z,97069.63
2023-05-17T05:05:26.550Z,97075.25
2023-05-17T05:07:53.732Z,97079.02
2023-05-17T05:10:21.634Z,97079.51
2023-05-17T05:12:48.513Z,97082.36
2023-05-17T05:15:15.930Z,97084.71
2023-05-17T05:17:48.613Z,97078.77
2023-05-17T05:20:15.833Z,97078.05
2023-05-17T05:22:43.473Z,97079.61
2023-05-17T05:25:10.899Z,97076.73
2023-05-17T05:27:37.891Z,97078.70
2023-05-17T05:30:05.914Z,97075.89
2023-05-17T05:32:33.623Z,97076.88
2023-05-17T05:35:01.191Z,97076.97
2023-05-17T05:37:28.131Z,97082.96
2023-05-17T05:39:56.152Z,97091.89
2023-05-17T05:45:19.518Z,97088.17
2023-05-17T05:47:47.602Z,97088.30
2023-05-17T05:50:15.040Z,97082.05
2023-05-17T05:52:43.020Z,97080.44
2023-05-17T05:55:10.171Z,97083.98
2023-05-17T05:57:37.058Z,97089.09
2023-05-17T06:00:04.973Z,97094.09
2023-05-17T06:02:40.088Z,97090.54
2023-05-17T06:05:07.261Z,97098.51
2023-05-17T06:07:34.229Z,97101.77
2023-05-17T06:10:01.115Z,97105.63
2023-05-17T06:12:28.117Z,97110.04
2023-05-17T06:14:55.098Z,97110.55
2023-05-17T06:17:22.001Z,97114.20
2023-05-17T06:19:49.660Z,97115.90
2023-05-17T06:22:16.666Z,97119.30
2023-05-17T06:24:43.483Z,97122.21
2023-05-17T06:27:10.390Z,97122.79
2023-05-17T06:29:37.318Z,97123.34
2023-05-17T06:32:04.556Z,97122.90
2023-05-17T06:34:31.322Z,97123.90
2023-05-17T06:36:58.564Z,97128.40
2023-05-17T06:39:25.465Z,97124.05
2023-05-17T06:41:52.452Z,97130.46
2023-05-17T06:44:19.235Z,97132.20
2023-05-17T06:46:46.234Z,97134.42
2023-05-17T06:49:13.225Z,97130.81
2023-05-17T06:51:40.028Z,97130.31
2023-05-17T06:54:06.792Z,97134.40
2023-05-17T06:56:33.876Z,97135.71
2023-05-17T06:59:00.871Z,97138.21
2023-05-17T07:01:28.126Z,97142.46
2023-05-17T07:03:55.153Z,97141.86
2023-05-17T07:06:22.038Z,97144.98
2023-05-17T07:08:48.784Z,97149.67
2023-05-17T07:11:15.579Z,97151.67
2023-05-17T07:13:42.417Z,97155.23
2023-05-17T07:16:09.569Z,97162.40
2023-05-17T07:18:36.545Z,97160.70
2023-05-17T07:21:03.734Z,97161.05
2023-05-17T07:23:30.749Z,97168.73
2023-05-17T07:25:57.526Z,97171.06
2023-05-17T07:28:24.884Z,97166.11
2023-05-17T07:30:51.772Z,97161.70
2023-05-17T07:33:20.695Z,97155.13
2023-05-17T07:35:48.132Z,97153.39
2023-05-17T07:38:15.502Z,97160.10
2023-05-17T07:40:43.302Z,97154.40
2023-05-17T07:43:10.542Z,97151.38
2023-05-17T07:45:37.449Z,97153.55
2023-05-17T07:48:04.809Z,97159.25
2023-05-17T07:50:32.545Z,97156.05
2023-05-17T07:52:59.578Z,97159.91
2023-05-17T07:55:27.455Z,97163.19
2023-05-17T07:57:54.729Z,97172.52
2023-05-17T08:00:23.517Z,97176.48
2023-05-17T08:02:50.551Z,97178.66
2023-05-17T08:05:17.427Z,97180.91
2023-05-17T08:07:44.393Z,97182.56
2023-05-17T08:10:11.505Z,97176.55
2023-05-17T08:12:38.469Z,97182.99
2023-05-17T08:15:06.846Z,97193.52
2023-05-17T08:17:33.709Z,97192.55
2023-05-17T08:20:01.136Z,97185.83
2023-05-17T08:22:27.973Z,97182.60
2023-05-17T08:24:54.723Z,97176.23
2023-05-17T08:27:22.666Z,97175.88
2023-05-17T08:29:49.566Z,97176.41
2023-05-17T08:32:16.521Z,97176.70
2023-05-17T08:34:46.290Z,97180.89
2023-05-17T08:37:13.174Z,97181.23
2023-05-17T08:39:40.081Z,97185.73
2023-05-17T08:42:09.999Z,97193.50
2023-05-17T08:44:37.437Z,97186.35
2023-05-17T08:47:04.469Z,97181.92
2023-05-17T08:49:34.402Z,97181.66
2023-05-17T08:52:01.750Z,97175.95
2023-05-17T08:54:28.556Z,97185.54
2023-05-17T08:56:58.726Z,97183.71
2023-05-17T08:59:26.740Z,97179.04
2023-05-17T09:01:53.778Z,97177.64
2023-05-17T09:04:21.292Z,97171.55
2023-05-17T09:06:48.753Z,97162.75
2023-05-17T09:09:15.996Z,97160.48
2023-05-17T09:11:42.787Z,97169.71
2023-05-17T09:14:09.591Z,97175.23
2023-05-17T09:16:37.381Z,97178.42
2023-05-17T09:19:05.913Z,97176.00
2023-05-17T09:21:33.077Z,97181.89
2023-05-17T09:24:07.358Z,97176.27
2023-05-17T09:26:45.924Z,97176.85
2023-05-17T09:29:16.313Z,97176.23
2023-05-17T09:31:43.486Z,97173.02
2023-05-17T09:34:10.947Z,97174.85
2023-05-17T09:36:38.675Z,97173.37
2023-05-17T09:39:08.127Z,97177.01
2023-05-17T09:41:43.014Z,97173.27
2023-05-17T09:44:11.060Z,97176.39
2023-05-17T09:46:48.384Z,97175.00
2023-05-17T09:49:16.414Z,97172.77
2023-05-17T09:51:45.037Z,97175.02
2023-05-17T09:54:12.137Z,97176.25
2023-05-17T09:56:39.112Z,97179.50
2023-05-17T09:59:11.942Z,97180.09
2023-05-17T10:01:41.390Z,97183.86
2023-05-17T10:04:11.951Z,97184.80
2023-05-17T10:09:12.473Z,97187.51
2023-05-17T10:11:39.499Z,97188.63
2023-05-17T10:14:32.467Z,97183.87
2023-05-17T10:16:59.640Z,97183.94
2023-05-17T10:19:26.600Z,97185.11
2023-05-17T10:21:54.032Z,97184.84
2023-05-17T10:24:21.979Z,97185.23
2023-05-17T10:26:52.204Z,97185.08
2023-05-17T10:29:21.411Z,97183.19
2023-05-17T10:31:48.409Z,97187.10
2023-05-17T10:34:15.718Z,97186.89
2023-05-17T10:36:43.724Z,97190.13
2023-05-17T10:39:11.021Z,97187.42
2023-05-17T10:41:42.866Z,97188.81
2023-05-17T10:44:12.020Z,97190.06
2023-05-17T10:46:39.422Z,97194.21
2023-05-17T10:49:06.275Z,97201.33
2023-05-17T10:51:34.954Z,97204.28
2023-05-17T10:54:12.534Z,97207.96
2023-05-17T10:56:41.388Z,97212.88
2023-05-17T10:59:25.130Z,97215.14
2023-05-17T11:01:56.053Z,97211.80
2023-05-17T11:04:26.156Z,97213.11
2023-05-17T11:06:55.146Z,97215.74
2023-05-17T11:09:24.046Z,97215.26
2023-05-17T11:12:07.917Z,97214.67
2023-05-17T11:14:47.138Z,97215.34
2023-05-17T11:17:19.664Z,97212.16
2023-05-17T11:19:55.305Z,97213.05
2023-05-17T11:22:26.089Z,97208.77
2023-05-17T11:24:54.225Z,97211.21
2023-05-17T11:27:21.242Z,97209.71
2023-05-17T11:29:48.281Z,97209.85
2023-05-17T11:32:15.149Z,97208.91
2023-05-17T11:34:42.286Z,97208.21
2023-05-17T11:37:13.217Z,97209.67
2023-05-17T11:40:01.558Z,97206.85
2023-05-17T11:42:28.703Z,97209.16
2023-05-17T11:44:58.003Z,97205.75
2023-05-17T11:47:24.998Z,97206.97
2023-05-17T11:49:54.264Z,97206.88
2023-05-17T11:52:22.787Z,97205.76
2023-05-17T11:54:49.864Z,97202.72
2023-05-17T11:57:18.187Z,97205.39
2023-05-17T11:59:45.058Z,97202.48
2023-05-17T12:02:12.621Z,97203.52
2023-05-17T12:04:39.572Z,97201.39
2023-05-17T12:07:10.758Z,97199.52
2023-05-17T12:09:38.833Z,97201.27
2023-05-17T12:12:05.995Z,97201.23
2023-05-17T12:14:33.120Z,97196.20
2023-05-17T12:16:59.958Z,97192.66
2023-05-17T12:19:29.820Z,97191.19
2023-05-17T12:22:13.031Z,97194.74
2023-05-17T12:24:41.588Z,97195.16
2023-05-17T12:27:08.952Z,97196.24
2023-05-17T12:29:35.847Z,97198.15
2023-05-17T12:32:02.791Z,97192.02
2023-05-17T12:34:29.592Z,97187.33
2023-05-17T12:36:56.536Z,97183.78
2023-05-17T12:39:24.210Z,97182.36
2023-05-17T12:41:53.924Z,97181.23
2023-05-17T12:44:20.829Z,97179.66
2023-05-17T12:46:53.907Z,97169.67
2023-05-17T12:49:22.102Z,97167.88
2023-05-17T12:51:49.714Z,97162.48
2023-05-17T12:54:27.442Z,97157.27
2023-05-17T12:56:55.240Z,97157.11
2023-05-17T12:59:25.070Z,97158.53
2023-05-17T13:01:53.393Z,97158.79
2023-05-17T13:04:20.961Z,97161.70
2023-05-17T13:06:52.661Z,97162.98
2023-05-17T13:09:21.993Z,97160.34
2023-05-17T13:11:52.768Z,97161.58
2023-05-17T13:14:47.035Z,97163.31
2023-05-17T13:17:22.040Z,97166.98
2023-05-17T13:19:49.050Z,97163.38
2023-05-17T13:22:16.041Z,97156.08
2023-05-17T13:24:44.074Z,97153.41
2023-05-17T13:27:11.275Z,97154.73
2023-05-17T13:29:40.705Z,97156.64
2023-05-17T13:32:08.496Z,97158.55
2023-05-17T13:34:35.706Z,97154.97
2023-05-17T13:37:02.584Z,97153.73
2023-05-17T13:39:29.457Z,97152.12
2023-05-17T13:41:56.435Z,97154.55
2023-05-17T13:44:23.377Z,97152.73
2023-05-17T13:46:50.245Z,97156.52
2023-05-17T13:49:17.324Z,97163.30
2023-05-17T13:51:45.136Z,97162.06
2023-05-17T13:54:11.949Z,97160.55
2023-05-17T13:56:38.855Z,97162.71
2023-05-17T13:59:05.989Z,97162.70
2023-05-17T14:01:33.031Z,97162.60
2023-05-17T14:04:00.928Z,97172.38
2023-05-17T14:06:28.396Z,97170.30
2023-05-17T14:08:57.276Z,97172.25
2023-05-17T14:11:24.349Z,97173.00
2023-05-17T14:13:51.098Z,97171.55
2023-05-17T14:16:17.974Z,97171.14
2023-05-17T14:18:46.081Z,97172.44
2023-05-17T14:21:13.000Z,97175.86
2023-05-17T14:23:39.796Z,97173.90
2023-05-17T14:26:09.498Z,97171.05
2023-05-17T14:28:38.372Z,97172.09
2023-05-17T14:31:08.831Z,97167.30
2023-05-17T14:33:35.829Z,97167.66
2023-05-17T14:36:04.195Z,97168.16
2023-05-17T14:38:31.223Z,97166.83
2023-05-17T14:41:00.824Z,97165.66
2023-05-17T14:43:28.154Z,97163.50
2023-05-17T14:45:54.992Z,97163.13
2023-05-17T14:48:22.575Z,97168.64
2023-05-17T14:50:50.047Z,97169.23
2023-05-17T14:53:17.617Z,97170.98
2023-05-17T14:55:44.989Z,97168.86
2023-05-17T14:58:13.776Z,97166.60
2023-05-17T15:00:41.994Z,97171.32
2023-05-17T15:03:09.250Z,97171.92
2023-05-17T15:05:37.190Z,97172.89
2023-05-17T15:08:04.564Z,97173.36
2023-05-17T15:10:31.892Z,97175.66
2023-05-17T15:12:58.755Z,97176.76
2023-05-17T15:15:25.568Z,97177.79
2023-05-17T15:17:53.081Z,97174.46
2023-05-17T15:20:20.597Z,97175.06
2023-05-17T15:22:48.509Z,97172.66
2023-05-17T15:25:16.172Z,97172.85
2023-05-17T15:27:43.407Z,97172.64
2023-05-17T15:30:13.359Z,97173.67
2023-05-17T15:32:41.076Z,97176.37
2023-05-17T15:35:08.704Z,97174.39
2023-05-17T15:37:35.833Z,97176.39
2023-05-17T15:40:08.609Z,97176.11
2023-05-17T15:42:35.586Z,97177.71
2023-05-17T15:45:02.579Z,97183.64
2023-05-17T15:47:42.511Z,97183.75
2023-05-17T15:50:11.375Z,97184.00
2023-05-17T15:52:39.244Z,97186.20
2023-05-17T15:55:06.685Z,97193.88
2023-05-17T15:57:33.519Z,97191.79
2023-05-17T16:00:00.759Z,97195.20
2023-05-17T16:02:27.953Z,97197.32
2023-05-17T16:04:54.922Z,97199.88
2023-05-17T16:07:22.123Z,97201.46
2023-05-17T16:09:48.886Z,97201.38
2023-05-17T16:12:16.081Z,97205.47
2023-05-17T16:14:44.282Z,97201.14
2023-05-17T16:17:11.111Z,97203.73
2023-05-17T16:19:38.267Z,97205.77
2023-05-17T16:22:05.203Z,97202.92
2023-05-17T16:24:31.951Z,97203.71
2023-05-17T16:26:59.214Z,97204.48
2023-05-17T16:29:25.979Z,97204.97
2023-05-17T16:31:53.098Z,97216.45
2023-05-17T16:34:20.327Z,97221.08
2023-05-17T16:36:48.328Z,97223.55
2023-05-17T16:39:15.120Z,97230.45
2023-05-17T16:41:41.870Z,97238.02
2023-05-17T16:44:08.699Z,97252.45
2023-05-17T16:46:37.545Z,97259.00
2023-05-17T16:49:04.997Z,97270.00
2023-05-17T16:51:31.854Z,97279.52
2023-05-17T16:53:58.752Z,97287.33
2023-05-17T16:56:25.642Z,97287.75
2023-05-17T16:58:52.741Z,97294.38
2023-05-17T17:01:19.538Z,97294.83
2023-05-17T17:03:46.355Z,97301.56
2023-05-17T17:06:13.204Z,97308.90
2023-05-17T17:08:40.013Z,97307.92
2023-05-17T17:11:06.910Z,97301.44
2023-05-17T17:13:34.974Z,97297.30
2023-05-17T17:16:01.857Z,97292.63
2023-05-17T17:18:29.459Z,97294.13
2023-05-17T17:20:57.412Z,97289.59
2023-05-17T17:23:24.219Z,97286.65
2023-05-17T17:25:51.137Z,97287.20
2023-05-17T17:28:17.982Z,97286.08
2023-05-17T17:30:44.759Z,97287.13
2023-05-17T17:33:11.558Z,97289.00
2023-05-17T17:35:38.918Z,97292.17
2023-05-17T17:38:05.926Z,97297.11
2023-05-17T17:40:32.912Z,97298.45
2023-05-17T17:42:59.998Z,97301.34
2023-05-17T17:45:26.814Z,97303.85
2023-05-17T17:47:53.891Z,97303.52
2023-05-17T17:50:20.885Z,97307.50
2023-05-17T17:52:48.172Z,97311.52
2023-05-17T17:55:15.400Z,97323.83
2023-05-17T17:57:42.141Z,97324.04
2023-05-17T18:02:20.689Z,97343.48
2023-05-17T18:04:47.684Z,97352.88
2023-05-17T18:07:17.048Z,97357.23
2023-05-17T18:09:44.453Z,97359.92
2023-05-17T18:12:11.357Z,97364.48
2023-05-17T18:14:38.176Z,97369.73
2023-05-17T18:17:05.601Z,97380.08
2023-05-17T18:19:32.607Z,97387.70
2023-05-17T18:21:59.671Z,97393.97
2023-05-17T18:24:26.495Z,97398.67
2023-05-17T18:26:53.395Z,97407.64
2023-05-17T18:29:20.156Z,97413.60
2023-05-17T18:31:48.274Z,97413.15
2023-05-17T18:34:15.306Z,97429.30
2023-05-17T18:36:43.115Z,97436.54
2023-05-17T18:39:10.023Z,97440.05
2023-05-17T18:41:36.848Z,97446.61
2023-05-17T18:44:03.616Z,97454.27
2023-05-17T18:46:30.488Z,97457.71
2023-05-17T18:48:58.632Z,97464.36
2023-05-17T18:51:25.716Z,97473.72
2023-05-17T18:53:54.155Z,97474.66
2023-05-17T18:56:23.353Z,97479.23
2023-05-17T18:58:53.378Z,97485.83
2023-05-17T19:01:20.741Z,97492.11
2023-05-17T19:03:48.283Z,97497.55
2023-05-17T19:06:15.484Z,97501.17
2023-05-17T19:08:42.412Z,97503.88
2023-05-17T19:11:09.432Z,97507.40
2023-05-17T19:13:37.340Z,97507.42
2023-05-17T19:16:04.446Z,97511.08
2023-05-17T19:18:31.337Z,97513.87
2023-05-17T19:20:58.164Z,97511.33
2023-05-17T19:23:25.020Z,97518.21
2023-05-17T19:25:53.722Z,97523.84
2023-05-17T19:28:21.564Z,97531.61
2023-05-17T19:30:48.374Z,97535.85
2023-05-17T19:33:15.187Z,97544.79
2023-05-17T19:35:42.305Z,97545.05
2023-05-17T19:38:09.158Z,97542.34
2023-05-17T19:40:36.497Z,97548.09
2023-05-17T19:43:03.468Z,97547.84
2023-05-17T19:45:30.247Z,97552.32
2023-05-17T19:47:57.051Z,97554.35
2023-05-17T19:50:24.633Z,97557.44
2023-05-17T19:52:51.668Z,97555.36
2023-05-17T19:55:26.520Z,97556.08
2023-05-17T19:57:53.269Z,97556.95
2023-05-17T20:00:20.166Z,97562.66
2023-05-17T20:02:47.620Z,97561.70
2023-05-17T20:05:14.931Z,97562.23
2023-05-17T20:07:41.768Z,97561.50
2023-05-17T20:10:08.977Z,97562.19
2023-05-17T20:12:36.143Z,97563.65
2023-05-17T20:15:03.187Z,97568.20
2023-05-17T20:17:30.014Z,97575.02
2023-05-17T20:19:56.782Z,97574.76
2023-05-17T20:22:23.587Z,97575.98
2023-05-17T20:24:50.467Z,97578.48
2023-05-17T20:27:17.269Z,97574.10
2023-05-17T20:29:44.099Z,97575.52
2023-05-17T20:32:11.293Z,97577.48
2023-05-17T20:34:38.444Z,97583.11
2023-05-17T20:37:05.458Z,97584.77
2023-05-17T20:39:32.224Z,97586.63
2023-05-17T20:42:01.292Z,97590.15
2023-05-17T20:44:28.128Z,97586.73
2023-05-17T20:46:56.196Z,97586.52
2023-05-17T20:49:23.383Z,97587.02
2023-05-17T20:51:50.165Z,97589.04
2023-05-17T20:54:17.036Z,97588.95
2023-05-17T20:56:44.058Z,97587.73
2023-05-17T20:59:10.893Z,97590.61
2023-05-17T21:01:37.892Z,97587.95
2023-05-17T21:04:05.212Z,97590.66
2023-05-17T21:06:32.874Z,97592.94
2023-05-17T21:09:02.629Z,97590.98
2023-05-17T21:11:29.875Z,97590.83
2023-05-17T21:13:58.172Z,97590.64
2023-05-17T21:16:25.080Z,97590.45
2023-05-17T21:40:18.904Z,97594.84
2023-05-17T21:42:47.202Z,97598.64
2023-05-17T21:45:14.238Z,97597.08
2023-05-17T21:47:41.102Z,97591.05
2023-05-17T21:50:08.977Z,97588.94
2023-05-17T21:52:36.073Z,97592.05
2023-05-17T21:55:03.414Z,97595.06
2023-05-17T21:57:32.548Z,97598.33
2023-05-17T21:59:59.252Z,97604.48
2023-05-17T22:02:26.467Z,97603.73
2023-05-17T22:04:53.377Z,97607.11
2023-05-17T22:07:20.003Z,97608.86
2023-05-17T22:09:47.598Z,97608.39
2023-05-17T22:12:14.405Z,97612.06
2023-05-17T22:14:44.012Z,97612.70
2023-05-17T22:17:10.827Z,97615.73
2023-05-17T22:19:39.841Z,97617.84
2023-05-17T22:22:07.410Z,97622.48
2023-05-17T22:24:34.143Z,97622.44
2023-05-17T22:27:01.124Z,97624.39
2023-05-17T22:29:27.956Z,97624.71
2023-05-17T22:31:54.828Z,97626.25
2023-05-17T22:34:21.743Z,97632.61
2023-05-17T22:36:48.379Z,97628.84
2023-05-17T22:39:14.988Z,97626.98
2023-05-17T22:41:41.702Z,97632.30
2023-05-17T22:44:08.311Z,97629.42
2023-05-17T22:46:37.333Z,97628.16
2023-05-17T22:49:04.183Z,97626.64
2023-05-17T22:51:34.643Z,97621.94
2023-05-17T22:54:02.603Z,97624.75
2023-05-17T22:56:29.649Z,97627.01
2023-05-17T22:58:57.599Z,97626.02
2023-05-17T23:01:24.536Z,97629.65
2023-05-17T23:03:51.160Z,97632.96
2023-05-17T23:06:21.296Z,97636.30
2023-05-17T23:08:49.060Z,97634.42
2023-05-17T23:11:15.864Z,97637.52
2023-05-17T23:13:42.733Z,97639.81
2023-05-17T23:16:10.172Z,97641.41
2023-05-17T23:18:37.427Z,97642.60
2023-05-17T23:21:04.137Z,97640.64
2023-05-17T23:23:31.566Z,97645.18
2023-05-17T23:25:58.347Z,97643.98
2023-05-17T23:28:25.141Z,97643.85
2023-05-17T23:30:53.874Z,97643.18
2023-05-17T23:33:20.842Z,97648.83
2023-05-17T23:35:47.470Z,97651.25
2023-05-17T23:38:14.480Z,97656.80
2023-05-17T23:40:41.248Z,97658.64
2023-05-17T23:43:09.404Z,97662.96
2023-05-17T23:45:36.514Z,97661.98
2023-05-17T23:48:03.300Z,97658.93
2023-05-17T23:50:30.434Z,97659.00
2023-05-17T23:52:57.129Z,97658.06
2023-05-17T23:55:23.821Z,97658.56
2023-05-17T23:57:51.113Z,97657.77
